sensor_id;sensor_type;location;lat;lon;timestamp;pressure;altitude;pressure_sealevel;temperature;humidity
28027;BME280;15344;52.342;-1.290;2023-04-25T00:00:15;100246.47;;;9.53;60.04
28027;BME280;15344;52.342;-1.290;2023-04-25T00:02:41;100244.39;;;8.69;60.08
28027;BME280;15344;52.342;-1.290;2023-04-25T00:05:07;100246.09;;;8.21;63.02
28027;BME280;15344;52.342;-1.290;2023-04-25T00:07:32;100250.29;;;8.74;61.33
28027;BME280;15344;52.342;-1.290;2023-04-25T00:09:57;100251.45;;;8.54;62.07
28027;BME280;15344;52.342;-1.290;2023-04-25T00:12:22;100254.97;;;9.22;60.00
28027;BME280;15344;52.342;-1.290;2023-04-25T00:14:49;100254.22;;;9.35;59.55
28027;BME280;15344;52.342;-1.290;2023-04-25T00:17:13;100253.93;;;9.55;58.99
28027;BME280;15344;52.342;-1.290;2023-04-25T00:19:39;100255.40;;;9.54;58.19
28027;BME280;15344;52.342;-1.290;2023-04-25T00:22:04;100250.62;;;9.04;58.50
28027;BME280;15344;52.342;-1.290;2023-04-25T00:24:30;100248.82;;;8.27;58.76
28027;BME280;15344;52.342;-1.290;2023-04-25T00:26:56;100247.46;;;9.57;57.89
28027;BME280;15344;52.342;-1.290;2023-04-25T00:29:21;100245.12;;;8.81;60.04
28027;BME280;15344;52.342;-1.290;2023-04-25T00:31:47;100242.61;;;9.58;59.92
28027;BME280;15344;52.342;-1.290;2023-04-25T00:34:12;100241.65;;;8.68;63.12
28027;BME280;15344;52.342;-1.290;2023-04-25T00:36:38;100245.72;;;8.76;60.40
28027;BME280;15344;52.342;-1.290;2023-04-25T00:39:03;100243.54;;;8.59;59.64
28027;BME280;15344;52.342;-1.290;2023-04-25T00:41:30;100249.47;;;8.69;60.51
28027;BME280;15344;52.342;-1.290;2023-04-25T00:43:54;100256.64;;;9.49;58.54
28027;BME280;15344;52.342;-1.290;2023-04-25T00:46:20;100256.60;;;9.22;57.53
28027;BME280;15344;52.342;-1.290;2023-04-25T00:48:45;100258.24;;;8.39;62.41
28027;BME280;15344;52.342;-1.290;2023-04-25T00:51:14;100257.03;;;8.90;60.76
28027;BME280;15344;52.342;-1.290;2023-04-25T00:53:36;100254.90;;;9.34;57.74
28027;BME280;15344;52.342;-1.290;2023-04-25T00:56:02;100252.25;;;8.53;61.91
28027;BME280;15344;52.342;-1.290;2023-04-25T00:58:27;100254.75;;;8.88;60.55
28027;BME280;15344;52.342;-1.290;2023-04-25T01:00:53;100257.76;;;9.40;58.63
28027;BME280;15344;52.342;-1.290;2023-04-25T01:03:19;100259.21;;;9.77;57.68
28027;BME280;15344;52.342;-1.290;2023-04-25T01:05:44;100258.48;;;9.74;57.73
28027;BME280;15344;52.342;-1.290;2023-04-25T01:08:10;100261.11;;;9.56;58.60
28027;BME280;15344;52.342;-1.290;2023-04-25T01:10:35;100259.39;;;8.68;59.51
28027;BME280;15344;52.342;-1.290;2023-04-25T01:13:00;100259.92;;;9.24;59.17
28027;BME280;15344;52.342;-1.290;2023-04-25T01:15:25;100263.88;;;8.75;59.79
28027;BME280;15344;52.342;-1.290;2023-04-25T01:17:50;100266.90;;;9.32;58.51
28027;BME280;15344;52.342;-1.290;2023-04-25T01:20:16;100265.25;;;9.10;58.59
28027;BME280;15344;52.342;-1.290;2023-04-25T01:22:41;100263.91;;;8.60;60.92
28027;BME280;15344;52.342;-1.290;2023-04-25T01:25:07;100262.08;;;8.17;63.15
28027;BME280;15344;52.342;-1.290;2023-04-25T01:27:31;100267.46;;;7.81;64.89
28027;BME280;15344;52.342;-1.290;2023-04-25T01:29:56;100269.35;;;8.16;63.89
28027;BME280;15344;52.342;-1.290;2023-04-25T01:32:22;100274.29;;;8.70;60.37
28027;BME280;15344;52.342;-1.290;2023-04-25T01:34:47;100273.94;;;8.50;61.81
28027;BME280;15344;52.342;-1.290;2023-04-25T01:37:12;100274.38;;;7.78;64.58
28027;BME280;15344;52.342;-1.290;2023-04-25T01:39:37;100274.48;;;8.75;60.85
28027;BME280;15344;52.342;-1.290;2023-04-25T01:42:04;100277.75;;;8.69;60.02
28027;BME280;15344;52.342;-1.290;2023-04-25T01:44:28;100276.80;;;8.10;62.20
28027;BME280;15344;52.342;-1.290;2023-04-25T01:46:55;100283.28;;;8.91;58.66
28027;BME280;15344;52.342;-1.290;2023-04-25T01:49:19;100280.21;;;8.78;58.65
28027;BME280;15344;52.342;-1.290;2023-04-25T01:51:45;100277.77;;;8.61;59.03
28027;BME280;15344;52.342;-1.290;2023-04-25T01:54:11;100278.38;;;8.50;59.41
28027;BME280;15344;52.342;-1.290;2023-04-25T01:56:37;100279.72;;;8.38;59.51
28027;BME280;15344;52.342;-1.290;2023-04-25T01:59:02;100279.23;;;8.87;58.51
28027;BME280;15344;52.342;-1.290;2023-04-25T02:01:27;100280.52;;;8.14;60.22
28027;BME280;15344;52.342;-1.290;2023-04-25T02:03:53;100278.82;;;8.13;60.72
28027;BME280;15344;52.342;-1.290;2023-04-25T02:06:18;100278.95;;;8.98;56.38
28027;BME280;15344;52.342;-1.290;2023-04-25T02:08:44;100279.70;;;8.68;57.22
28027;BME280;15344;52.342;-1.290;2023-04-25T02:11:10;100280.95;;;8.74;58.05
28027;BME280;15344;52.342;-1.290;2023-04-25T02:13:35;100288.10;;;7.53;60.69
28027;BME280;15344;52.342;-1.290;2023-04-25T02:16:00;100290.98;;;7.77;62.73
28027;BME280;15344;52.342;-1.290;2023-04-25T02:18:25;100285.80;;;8.17;60.05
28027;BME280;15344;52.342;-1.290;2023-04-25T02:20:51;100288.63;;;8.67;57.74
28027;BME280;15344;52.342;-1.290;2023-04-25T02:23:16;100283.79;;;8.40;58.69
28027;BME280;15344;52.342;-1.290;2023-04-25T02:25:42;100285.70;;;8.93;56.76
28027;BME280;15344;52.342;-1.290;2023-04-25T02:28:08;100291.20;;;7.96;58.97
28027;BME280;15344;52.342;-1.290;2023-04-25T02:30:33;100291.66;;;8.03;60.20
28027;BME280;15344;52.342;-1.290;2023-04-25T02:32:59;100294.23;;;8.35;59.77
28027;BME280;15344;52.342;-1.290;2023-04-25T02:35:24;100293.02;;;7.99;61.43
28027;BME280;15344;52.342;-1.290;2023-04-25T02:37:50;100292.24;;;8.09;61.79
28027;BME280;15344;52.342;-1.290;2023-04-25T02:40:15;100292.58;;;8.14;61.42
28027;BME280;15344;52.342;-1.290;2023-04-25T02:42:41;100289.64;;;8.61;58.44
28027;BME280;15344;52.342;-1.290;2023-04-25T02:45:07;100293.94;;;7.70;60.90
28027;BME280;15344;52.342;-1.290;2023-04-25T02:47:32;100296.32;;;8.17;60.60
28027;BME280;15344;52.342;-1.290;2023-04-25T02:49:58;100298.57;;;7.66;61.74
28027;BME280;15344;52.342;-1.290;2023-04-25T02:52:23;100302.04;;;8.66;57.75
28027;BME280;15344;52.342;-1.290;2023-04-25T02:54:49;100299.23;;;8.10;60.66
28027;BME280;15344;52.342;-1.290;2023-04-25T02:57:15;100295.69;;;8.06;61.58
28027;BME280;15344;52.342;-1.290;2023-04-25T02:59:40;100298.78;;;8.06;60.73
28027;BME280;15344;52.342;-1.290;2023-04-25T03:02:05;100301.44;;;7.38;61.75
28027;BME280;15344;52.342;-1.290;2023-04-25T03:04:31;100303.98;;;7.60;63.02
28027;BME280;15344;52.342;-1.290;2023-04-25T03:06:57;100298.01;;;8.48;60.65
28027;BME280;15344;52.342;-1.290;2023-04-25T03:09:22;100306.78;;;7.43;63.99
28027;BME280;15344;52.342;-1.290;2023-04-25T03:11:47;100306.09;;;8.51;59.38
28027;BME280;15344;52.342;-1.290;2023-04-25T03:14:13;100313.80;;;7.13;62.66
28027;BME280;15344;52.342;-1.290;2023-04-25T03:16:38;100313.96;;;7.52;63.63
28027;BME280;15344;52.342;-1.290;2023-04-25T03:19:04;100308.83;;;7.96;60.65
28027;BME280;15344;52.342;-1.290;2023-04-25T03:21:30;100311.29;;;8.05;59.95
28027;BME280;15344;52.342;-1.290;2023-04-25T03:23:55;100319.65;;;7.63;60.10
28027;BME280;15344;52.342;-1.290;2023-04-25T03:26:20;100322.56;;;7.08;62.45
28027;BME280;15344;52.342;-1.290;2023-04-25T03:28:45;100322.09;;;7.81;60.14
28027;BME280;15344;52.342;-1.290;2023-04-25T03:31:12;100324.05;;;7.48;61.15
28027;BME280;15344;52.342;-1.290;2023-04-25T03:33:37;100324.26;;;8.35;58.72
28027;BME280;15344;52.342;-1.290;2023-04-25T03:36:03;100323.90;;;8.01;57.76
28027;BME280;15344;52.342;-1.290;2023-04-25T03:38:28;100328.05;;;8.05;59.06
28027;BME280;15344;52.342;-1.290;2023-04-25T03:40:53;100337.55;;;7.33;60.28
28027;BME280;15344;52.342;-1.290;2023-04-25T03:43:19;100346.13;;;6.76;62.54
28027;BME280;15344;52.342;-1.290;2023-04-25T03:45:44;100346.73;;;7.73;60.48
28027;BME280;15344;52.342;-1.290;2023-04-25T03:48:09;100343.00;;;8.04;57.98
28027;BME280;15344;52.342;-1.290;2023-04-25T03:50:35;100345.82;;;7.20;61.43
28027;BME280;15344;52.342;-1.290;2023-04-25T03:53:00;100348.93;;;7.36;61.41
28027;BME280;15344;52.342;-1.290;2023-04-25T03:55:26;100355.01;;;7.62;62.07
28027;BME280;15344;52.342;-1.290;2023-04-25T03:57:51;100352.49;;;7.53;60.79
28027;BME280;15344;52.342;-1.290;2023-04-25T04:00:16;100354.60;;;7.47;60.03
28027;BME280;15344;52.342;-1.290;2023-04-25T04:02:42;100358.63;;;7.03;60.74
28027;BME280;15344;52.342;-1.290;2023-04-25T04:05:08;100354.92;;;7.26;59.13
28027;BME280;15344;52.342;-1.290;2023-04-25T04:07:33;100353.76;;;6.51;62.89
28027;BME280;15344;52.342;-1.290;2023-04-25T04:09:58;100348.33;;;7.46;61.34
28027;BME280;15344;52.342;-1.290;2023-04-25T04:12:24;100347.86;;;7.50;61.22
28027;BME280;15344;52.342;-1.290;2023-04-25T04:14:49;100352.66;;;6.65;62.71
28027;BME280;15344;52.342;-1.290;2023-04-25T04:17:15;100357.23;;;7.39;60.05
28027;BME280;15344;52.342;-1.290;2023-04-25T04:19:40;100360.26;;;7.36;59.86
28027;BME280;15344;52.342;-1.290;2023-04-25T04:22:06;100351.54;;;7.32;58.49
28027;BME280;15344;52.342;-1.290;2023-04-25T04:24:31;100346.58;;;6.57;59.62
28027;BME280;15344;52.342;-1.290;2023-04-25T04:26:57;100354.71;;;6.23;61.62
28027;BME280;15344;52.342;-1.290;2023-04-25T04:29:22;100358.54;;;6.41;62.65
28027;BME280;15344;52.342;-1.290;2023-04-25T04:31:50;100353.37;;;6.38;62.66
28027;BME280;15344;52.342;-1.290;2023-04-25T04:34:13;100350.82;;;6.26;63.36
28027;BME280;15344;52.342;-1.290;2023-04-25T04:36:39;100351.09;;;6.29;63.86
28027;BME280;15344;52.342;-1.290;2023-04-25T04:39:06;100348.05;;;6.34;62.08
28027;BME280;15344;52.342;-1.290;2023-04-25T04:41:29;100348.12;;;6.69;60.38
28027;BME280;15344;52.342;-1.290;2023-04-25T04:43:55;100352.88;;;6.05;62.25
28027;BME280;15344;52.342;-1.290;2023-04-25T04:46:20;100348.71;;;6.36;60.78
28027;BME280;15344;52.342;-1.290;2023-04-25T04:48:46;100352.34;;;6.77;61.20
28027;BME280;15344;52.342;-1.290;2023-04-25T04:51:11;100365.24;;;6.76;60.83
28027;BME280;15344;52.342;-1.290;2023-04-25T04:53:37;100368.50;;;7.09;60.20
28027;BME280;15344;52.342;-1.290;2023-04-25T04:56:03;100370.28;;;6.54;62.41
28027;BME280;15344;52.342;-1.290;2023-04-25T04:58:28;100376.33;;;6.57;62.70
28027;BME280;15344;52.342;-1.290;2023-04-25T05:00:53;100383.06;;;7.28;61.16
28027;BME280;15344;52.342;-1.290;2023-04-25T05:03:19;100384.89;;;6.90;61.53
28027;BME280;15344;52.342;-1.290;2023-04-25T05:05:45;100391.38;;;6.58;63.28
28027;BME280;15344;52.342;-1.290;2023-04-25T05:08:11;100394.15;;;7.17;62.13
28027;BME280;15344;52.342;-1.290;2023-04-25T05:10:36;100392.38;;;6.38;63.06
28027;BME280;15344;52.342;-1.290;2023-04-25T05:13:02;100384.05;;;6.78;62.19
28027;BME280;15344;52.342;-1.290;2023-04-25T05:15:28;100385.81;;;7.21;60.56
28027;BME280;15344;52.342;-1.290;2023-04-25T05:17:53;100394.91;;;6.61;60.94
28027;BME280;15344;52.342;-1.290;2023-04-25T05:20:18;100397.41;;;7.02;60.81
28027;BME280;15344;52.342;-1.290;2023-04-25T05:22:44;100399.44;;;6.77;60.48
28027;BME280;15344;52.342;-1.290;2023-04-25T05:25:09;100399.15;;;7.21;60.44
28027;BME280;15344;52.342;-1.290;2023-04-25T05:27:35;100395.22;;;7.19;60.05
28027;BME280;15344;52.342;-1.290;2023-04-25T05:30:00;100400.06;;;7.52;59.80
28027;BME280;15344;52.342;-1.290;2023-04-25T05:32:26;100403.22;;;7.21;60.29
28027;BME280;15344;52.342;-1.290;2023-04-25T05:34:51;100402.54;;;7.28;60.18
28027;BME280;15344;52.342;-1.290;2023-04-25T05:37:17;100401.40;;;7.59;60.18
28027;BME280;15344;52.342;-1.290;2023-04-25T05:39:43;100411.80;;;7.75;59.17
28027;BME280;15344;52.342;-1.290;2023-04-25T05:42:08;100417.69;;;7.80;58.52
28027;BME280;15344;52.342;-1.290;2023-04-25T05:44:34;100416.58;;;7.77;58.75
28027;BME280;15344;52.342;-1.290;2023-04-25T05:46:59;100418.48;;;7.76;58.08
28027;BME280;15344;52.342;-1.290;2023-04-25T05:49:25;100423.51;;;7.62;58.34
28027;BME280;15344;52.342;-1.290;2023-04-25T05:51:50;100429.24;;;7.34;62.29
28027;BME280;15344;52.342;-1.290;2023-04-25T05:54:16;100428.01;;;7.20;63.12
28027;BME280;15344;52.342;-1.290;2023-04-25T05:56:42;100433.08;;;6.98;62.58
28027;BME280;15344;52.342;-1.290;2023-04-25T05:59:07;100436.86;;;7.73;60.56
28027;BME280;15344;52.342;-1.290;2023-04-25T06:01:33;100437.14;;;8.46;59.86
28027;BME280;15344;52.342;-1.290;2023-04-25T06:03:58;100433.84;;;7.97;59.81
28027;BME280;15344;52.342;-1.290;2023-04-25T06:06:24;100431.27;;;7.38;61.59
28027;BME280;15344;52.342;-1.290;2023-04-25T06:08:49;100427.24;;;7.52;61.01
28027;BME280;15344;52.342;-1.290;2023-04-25T06:11:15;100427.09;;;6.24;62.67
28027;BME280;15344;52.342;-1.290;2023-04-25T06:13:41;100427.58;;;7.15;61.57
28027;BME280;15344;52.342;-1.290;2023-04-25T06:16:06;100433.57;;;7.53;61.08
28027;BME280;15344;52.342;-1.290;2023-04-25T06:18:32;100437.22;;;7.80;61.12
28027;BME280;15344;52.342;-1.290;2023-04-25T06:20:58;100440.86;;;8.10;59.75
28027;BME280;15344;52.342;-1.290;2023-04-25T06:23:23;100446.83;;;7.95;59.85
28027;BME280;15344;52.342;-1.290;2023-04-25T06:25:48;100450.18;;;7.45;61.71
28027;BME280;15344;52.342;-1.290;2023-04-25T06:28:14;100451.38;;;7.51;60.84
28027;BME280;15344;52.342;-1.290;2023-04-25T06:30:39;100455.92;;;8.52;59.07
28027;BME280;15344;52.342;-1.290;2023-04-25T06:33:04;100465.20;;;6.32;62.16
28027;BME280;15344;52.342;-1.290;2023-04-25T06:35:29;100466.02;;;7.10;62.29
28027;BME280;15344;52.342;-1.290;2023-04-25T06:37:55;100469.05;;;7.04;62.28
28027;BME280;15344;52.342;-1.290;2023-04-25T06:40:21;100462.05;;;7.92;60.71
28027;BME280;15344;52.342;-1.290;2023-04-25T06:42:46;100457.70;;;7.67;61.37
28027;BME280;15344;52.342;-1.290;2023-04-25T06:45:12;100462.72;;;8.31;60.27
28027;BME280;15344;52.342;-1.290;2023-04-25T06:47:37;100468.83;;;7.67;63.13
28027;BME280;15344;52.342;-1.290;2023-04-25T06:50:03;100482.54;;;4.44;72.90
28027;BME280;15344;52.342;-1.290;2023-04-25T06:52:28;100483.47;;;6.83;64.99
28027;BME280;15344;52.342;-1.290;2023-04-25T06:54:53;100485.28;;;6.37;69.38
28027;BME280;15344;52.342;-1.290;2023-04-25T06:57:19;100474.15;;;7.26;66.52
28027;BME280;15344;52.342;-1.290;2023-04-25T06:59:44;100476.00;;;6.86;67.79
28027;BME280;15344;52.342;-1.290;2023-04-25T07:02:10;100474.93;;;7.22;66.84
28027;BME280;15344;52.342;-1.290;2023-04-25T07:04:35;100475.38;;;6.46;68.33
28027;BME280;15344;52.342;-1.290;2023-04-25T07:07:01;100479.01;;;6.90;68.10
28027;BME280;15344;52.342;-1.290;2023-04-25T07:09:26;100473.31;;;7.41;66.76
28027;BME280;15344;52.342;-1.290;2023-04-25T07:11:52;100475.52;;;7.21;67.32
28027;BME280;15344;52.342;-1.290;2023-04-25T07:14:18;100480.79;;;6.93;66.13
28027;BME280;15344;52.342;-1.290;2023-04-25T07:16:43;100483.63;;;7.87;62.70
28027;BME280;15344;52.342;-1.290;2023-04-25T07:19:09;100484.85;;;10.27;59.42
28027;BME280;15344;52.342;-1.290;2023-04-25T07:21:35;100488.97;;;11.51;54.06
28027;BME280;15344;52.342;-1.290;2023-04-25T07:24:00;100491.56;;;10.16;53.99
28027;BME280;15344;52.342;-1.290;2023-04-25T07:26:26;100489.39;;;10.44;51.81
28027;BME280;15344;52.342;-1.290;2023-04-25T07:28:51;100488.77;;;12.64;51.94
28027;BME280;15344;52.342;-1.290;2023-04-25T07:31:17;100487.47;;;14.11;47.20
28027;BME280;15344;52.342;-1.290;2023-04-25T07:33:42;100487.90;;;14.42;44.86
28027;BME280;15344;52.342;-1.290;2023-04-25T07:36:08;100487.74;;;15.49;42.44
28027;BME280;15344;52.342;-1.290;2023-04-25T07:38:32;100487.07;;;16.26;42.52
28027;BME280;15344;52.342;-1.290;2023-04-25T07:40:57;100490.88;;;17.61;40.04
28027;BME280;15344;52.342;-1.290;2023-04-25T07:43:23;100494.53;;;17.33;37.67
28027;BME280;15344;52.342;-1.290;2023-04-25T07:45:48;100496.86;;;17.10;37.66
28027;BME280;15344;52.342;-1.290;2023-04-25T07:48:17;100501.12;;;17.56;36.08
28027;BME280;15344;52.342;-1.290;2023-04-25T07:50:38;100503.63;;;16.65;36.72
28027;BME280;15344;52.342;-1.290;2023-04-25T07:53:04;100503.17;;;18.31;35.52
28027;BME280;15344;52.342;-1.290;2023-04-25T07:55:28;100506.49;;;17.26;35.69
28027;BME280;15344;52.342;-1.290;2023-04-25T07:57:54;100507.09;;;18.02;35.31
28027;BME280;15344;52.342;-1.290;2023-04-25T08:00:20;100505.21;;;17.61;34.37
28027;BME280;15344;52.342;-1.290;2023-04-25T08:02:44;100513.88;;;18.93;33.83
28027;BME280;15344;52.342;-1.290;2023-04-25T08:05:09;100511.16;;;19.26;34.82
28027;BME280;15344;52.342;-1.290;2023-04-25T08:07:35;100514.26;;;19.24;32.47
28027;BME280;15344;52.342;-1.290;2023-04-25T08:10:01;100520.08;;;19.09;32.20
28027;BME280;15344;52.342;-1.290;2023-04-25T08:12:25;100520.70;;;18.15;32.56
28027;BME280;15344;52.342;-1.290;2023-04-25T08:14:50;100524.45;;;18.37;33.76
28027;BME280;15344;52.342;-1.290;2023-04-25T08:17:15;100525.65;;;18.12;32.76
28027;BME280;15344;52.342;-1.290;2023-04-25T08:19:40;100523.94;;;19.88;32.43
28027;BME280;15344;52.342;-1.290;2023-04-25T08:22:05;100527.39;;;20.15;30.93
28027;BME280;15344;52.342;-1.290;2023-04-25T08:24:30;100526.70;;;19.71;31.40
28027;BME280;15344;52.342;-1.290;2023-04-25T08:26:55;100528.83;;;19.26;31.11
28027;BME280;15344;52.342;-1.290;2023-04-25T08:29:21;100526.26;;;20.74;30.91
28027;BME280;15344;52.342;-1.290;2023-04-25T08:31:47;100525.82;;;19.87;30.93
28027;BME280;15344;52.342;-1.290;2023-04-25T08:34:13;100531.05;;;19.08;31.39
28027;BME280;15344;52.342;-1.290;2023-04-25T08:36:39;100532.18;;;20.07;31.17
28027;BME280;15344;52.342;-1.290;2023-04-25T08:39:05;100532.66;;;20.57;30.25
28027;BME280;15344;52.342;-1.290;2023-04-25T08:41:31;100531.74;;;20.74;29.45
28027;BME280;15344;52.342;-1.290;2023-04-25T08:43:57;100531.06;;;19.74;29.23
28027;BME280;15344;52.342;-1.290;2023-04-25T08:46:23;100532.82;;;21.09;28.83
28027;BME280;15344;52.342;-1.290;2023-04-25T08:48:49;100532.15;;;19.70;29.46
28027;BME280;15344;52.342;-1.290;2023-04-25T08:51:20;100532.49;;;21.47;27.97
28027;BME280;15344;52.342;-1.290;2023-04-25T08:53:40;100532.53;;;23.92;28.06
28027;BME280;15344;52.342;-1.290;2023-04-25T08:56:07;100529.02;;;22.14;27.75
28027;BME280;15344;52.342;-1.290;2023-04-25T08:58:32;100528.67;;;20.18;29.18
28027;BME280;15344;52.342;-1.290;2023-04-25T09:00:57;100525.77;;;20.17;29.21
28027;BME280;15344;52.342;-1.290;2023-04-25T09:03:23;100525.15;;;20.54;28.11
28027;BME280;15344;52.342;-1.290;2023-04-25T09:05:49;100528.86;;;19.79;28.51
28027;BME280;15344;52.342;-1.290;2023-04-25T09:08:15;100527.98;;;20.05;29.34
28027;BME280;15344;52.342;-1.290;2023-04-25T09:10:40;100529.66;;;23.02;28.74
28027;BME280;15344;52.342;-1.290;2023-04-25T09:13:08;100522.52;;;22.15;28.08
28027;BME280;15344;52.342;-1.290;2023-04-25T09:15:33;100524.34;;;22.46;28.92
28027;BME280;15344;52.342;-1.290;2023-04-25T09:17:58;100523.43;;;23.62;27.00
28027;BME280;15344;52.342;-1.290;2023-04-25T09:20:24;100522.70;;;20.82;27.33
28027;BME280;15344;52.342;-1.290;2023-04-25T09:22:49;100518.39;;;20.87;26.72
28027;BME280;15344;52.342;-1.290;2023-04-25T09:25:15;100521.09;;;22.48;27.57
28027;BME280;15344;52.342;-1.290;2023-04-25T09:27:50;100520.41;;;22.93;27.37
28027;BME280;15344;52.342;-1.290;2023-04-25T09:30:08;100517.67;;;20.71;27.76
28027;BME280;15344;52.342;-1.290;2023-04-25T09:32:33;100516.43;;;20.06;28.23
28027;BME280;15344;52.342;-1.290;2023-04-25T09:34:58;100512.18;;;21.44;28.99
28027;BME280;15344;52.342;-1.290;2023-04-25T09:37:27;100513.44;;;22.24;28.32
28027;BME280;15344;52.342;-1.290;2023-04-25T09:39:53;100514.02;;;23.78;28.25
28027;BME280;15344;52.342;-1.290;2023-04-25T09:42:16;100512.23;;;22.39;29.18
28027;BME280;15344;52.342;-1.290;2023-04-25T09:44:44;100514.65;;;20.02;28.46
28027;BME280;15344;52.342;-1.290;2023-04-25T09:47:10;100516.62;;;20.64;26.09
28027;BME280;15344;52.342;-1.290;2023-04-25T09:49:33;100515.11;;;21.85;27.50
28027;BME280;15344;52.342;-1.290;2023-04-25T09:51:59;100516.28;;;22.73;26.50
28027;BME280;15344;52.342;-1.290;2023-04-25T09:54:25;100515.66;;;22.48;24.78
28027;BME280;15344;52.342;-1.290;2023-04-25T09:56:52;100515.89;;;23.55;27.70
28027;BME280;15344;52.342;-1.290;2023-04-25T09:59:17;100515.11;;;22.63;25.08
28027;BME280;15344;52.342;-1.290;2023-04-25T10:01:43;100513.50;;;21.52;25.28
28027;BME280;15344;52.342;-1.290;2023-04-25T10:04:10;100513.83;;;20.77;25.09
28027;BME280;15344;52.342;-1.290;2023-04-25T10:06:34;100510.22;;;19.30;26.68
28027;BME280;15344;52.342;-1.290;2023-04-25T10:09:00;100511.61;;;17.73;27.72
28027;BME280;15344;52.342;-1.290;2023-04-25T10:11:26;100509.32;;;20.53;27.39
28027;BME280;15344;52.342;-1.290;2023-04-25T10:13:53;100512.17;;;19.26;26.87
28027;BME280;15344;52.342;-1.290;2023-04-25T10:16:17;100512.70;;;20.21;28.85
28027;BME280;15344;52.342;-1.290;2023-04-25T10:18:41;100512.07;;;19.50;28.45
28027;BME280;15344;52.342;-1.290;2023-04-25T10:21:07;100517.43;;;18.53;27.96
28027;BME280;15344;52.342;-1.290;2023-04-25T10:23:32;100514.57;;;20.45;26.90
28027;BME280;15344;52.342;-1.290;2023-04-25T10:25:57;100509.03;;;19.69;27.57
28027;BME280;15344;52.342;-1.290;2023-04-25T10:28:22;100509.70;;;20.82;28.03
28027;BME280;15344;52.342;-1.290;2023-04-25T10:30:58;100511.24;;;20.07;27.64
28027;BME280;15344;52.342;-1.290;2023-04-25T10:33:16;100508.17;;;19.42;25.29
28027;BME280;15344;52.342;-1.290;2023-04-25T10:35:37;100512.15;;;18.07;27.41
28027;BME280;15344;52.342;-1.290;2023-04-25T10:38:04;100508.93;;;20.12;25.95
28027;BME280;15344;52.342;-1.290;2023-04-25T10:40:27;100501.85;;;19.60;27.48
28027;BME280;15344;52.342;-1.290;2023-04-25T10:42:52;100513.41;;;18.66;27.25
28027;BME280;15344;52.342;-1.290;2023-04-25T10:45:17;100512.20;;;19.28;26.40
28027;BME280;15344;52.342;-1.290;2023-04-25T10:47:44;100513.51;;;18.98;27.73
28027;BME280;15344;52.342;-1.290;2023-04-25T10:50:08;100514.66;;;16.75;29.88
28027;BME280;15344;52.342;-1.290;2023-04-25T10:52:33;100514.85;;;17.82;28.86
28027;BME280;15344;52.342;-1.290;2023-04-25T10:54:58;100516.52;;;16.86;29.34
28027;BME280;15344;52.342;-1.290;2023-04-25T10:57:31;100514.59;;;15.26;28.06
28027;BME280;15344;52.342;-1.290;2023-04-25T10:59:48;100516.73;;;15.80;29.50
28027;BME280;15344;52.342;-1.290;2023-04-25T11:02:12;100515.78;;;15.01;30.01
28027;BME280;15344;52.342;-1.290;2023-04-25T11:04:37;100517.27;;;15.42;29.47
28027;BME280;15344;52.342;-1.290;2023-04-25T11:07:09;100517.83;;;15.52;30.28
28027;BME280;15344;52.342;-1.290;2023-04-25T11:09:28;100513.03;;;15.40;28.23
28027;BME280;15344;52.342;-1.290;2023-04-25T11:11:54;100519.35;;;16.17;28.99
28027;BME280;15344;52.342;-1.290;2023-04-25T11:14:20;100522.07;;;17.36;28.07
28027;BME280;15344;52.342;-1.290;2023-04-25T11:16:44;100517.95;;;14.53;29.05
28027;BME280;15344;52.342;-1.290;2023-04-25T11:19:09;100517.47;;;16.82;27.39
28027;BME280;15344;52.342;-1.290;2023-04-25T11:21:34;100526.19;;;15.95;29.11
28027;BME280;15344;52.342;-1.290;2023-04-25T11:24:00;100521.50;;;16.70;27.96
28027;BME280;15344;52.342;-1.290;2023-04-25T11:26:25;100517.23;;;17.11;28.79
28027;BME280;15344;52.342;-1.290;2023-04-25T11:28:49;100516.93;;;16.37;29.06
28027;BME280;15344;52.342;-1.290;2023-04-25T11:31:15;100516.50;;;15.87;29.84
28027;BME280;15344;52.342;-1.290;2023-04-25T11:33:40;100518.87;;;16.33;29.36
28027;BME280;15344;52.342;-1.290;2023-04-25T11:36:05;100514.83;;;15.42;29.14
28027;BME280;15344;52.342;-1.290;2023-04-25T11:38:30;100520.53;;;15.21;31.33
28027;BME280;15344;52.342;-1.290;2023-04-25T11:40:56;100519.11;;;16.85;30.58
28027;BME280;15344;52.342;-1.290;2023-04-25T11:43:21;100515.58;;;16.91;29.40
28027;BME280;15344;52.342;-1.290;2023-04-25T11:45:46;100515.54;;;16.80;30.43
28027;BME280;15344;52.342;-1.290;2023-04-25T11:48:11;100516.88;;;16.62;30.04
28027;BME280;15344;52.342;-1.290;2023-04-25T11:50:39;100511.85;;;16.37;31.32
28027;BME280;15344;52.342;-1.290;2023-04-25T11:53:02;100512.68;;;16.06;30.68
28027;BME280;15344;52.342;-1.290;2023-04-25T11:55:30;100515.36;;;15.92;30.46
28027;BME280;15344;52.342;-1.290;2023-04-25T11:57:52;100513.28;;;15.52;30.40
28027;BME280;15344;52.342;-1.290;2023-04-25T12:00:19;100516.20;;;15.54;30.63
28027;BME280;15344;52.342;-1.290;2023-04-25T12:02:44;100513.60;;;15.93;30.72
28027;BME280;15344;52.342;-1.290;2023-04-25T12:05:09;100511.29;;;15.21;30.04
28027;BME280;15344;52.342;-1.290;2023-04-25T12:07:34;100519.53;;;15.37;31.98
28027;BME280;15344;52.342;-1.290;2023-04-25T12:09:58;100514.58;;;16.83;32.58
28027;BME280;15344;52.342;-1.290;2023-04-25T12:12:27;100506.84;;;15.08;27.90
28027;BME280;15344;52.342;-1.290;2023-04-25T12:14:49;100509.56;;;17.01;29.42
28027;BME280;15344;52.342;-1.290;2023-04-25T12:17:14;100516.19;;;16.61;29.94
28027;BME280;15344;52.342;-1.290;2023-04-25T12:19:39;100516.96;;;16.17;28.88
28027;BME280;15344;52.342;-1.290;2023-04-25T12:24:33;100519.04;;;15.95;29.63
28027;BME280;15344;52.342;-1.290;2023-04-25T12:27:00;100521.54;;;14.27;28.06
28027;BME280;15344;52.342;-1.290;2023-04-25T12:29:22;100513.70;;;15.80;28.65
28027;BME280;15344;52.342;-1.290;2023-04-25T12:31:46;100513.90;;;16.87;28.86
28027;BME280;15344;52.342;-1.290;2023-04-25T12:34:12;100515.90;;;17.05;27.41
28027;BME280;15344;52.342;-1.290;2023-04-25T12:36:37;100521.78;;;14.98;29.73